sensor_id;sensor_type;location;lat;lon;timestamp;pressure;altitude;pressure_sealevel;temperature;humidity
75036;BME280;64247;51.540;5.854;2022-10-16T00:01:41;100752.34;;;12.35;97.07
75036;BME280;64247;51.540;5.854;2022-10-16T00:03:43;100758.94;;;12.34;97.10
75036;BME280;64247;51.540;5.854;2022-10-16T00:05:44;100764.31;;;12.30;97.36
75036;BME280;64247;51.540;5.854;2022-10-16T00:07:45;100777.91;;;12.30;97.28
75036;BME280;64247;51.540;5.854;2022-10-16T00:09:46;100754.59;;;12.29;97.46
75036;BME280;64247;51.540;5.854;2022-10-16T00:11:47;100765.47;;;12.29;97.30
75036;BME280;64247;51.540;5.854;2022-10-16T00:13:50;100746.75;;;12.28;97.56
75036;BME280;64247;51.540;5.854;2022-10-16T00:15:56;100747.91;;;12.27;97.45
75036;BME280;64247;51.540;5.854;2022-10-16T00:17:58;100751.06;;;12.29;97.58
75036;BME280;64247;51.540;5.854;2022-10-16T00:19:59;100752.19;;;12.28;97.21
75036;BME280;64247;51.540;5.854;2022-10-16T00:22:00;100762.31;;;12.27;97.56
75036;BME280;64247;51.540;5.854;2022-10-16T00:24:03;100758.38;;;12.25;97.62
75036;BME280;64247;51.540;5.854;2022-10-16T00:26:11;100752.13;;;12.24;97.80
75036;BME280;64247;51.540;5.854;2022-10-16T00:28:14;100761.41;;;12.23;97.56
75036;BME280;64247;51.540;5.854;2022-10-16T00:30:14;100762.59;;;12.22;97.58
75036;BME280;64247;51.540;5.854;2022-10-16T00:32:15;100757.84;;;12.19;97.81
75036;BME280;64247;51.540;5.854;2022-10-16T00:34:16;100758.63;;;12.19;97.96
75036;BME280;64247;51.540;5.854;2022-10-16T00:36:20;100746.97;;;12.19;98.04
75036;BME280;64247;51.540;5.854;2022-10-16T00:38:23;100752.84;;;12.21;97.73
75036;BME280;64247;51.540;5.854;2022-10-16T00:40:24;100749.69;;;12.19;97.77
75036;BME280;64247;51.540;5.854;2022-10-16T00:42:25;100755.47;;;12.17;97.74
75036;BME280;64247;51.540;5.854;2022-10-16T00:47:11;100765.41;;;12.10;97.57
75036;BME280;64247;51.540;5.854;2022-10-16T00:49:19;100757.16;;;12.06;98.22
75036;BME280;64247;51.540;5.854;2022-10-16T00:51:23;100756.72;;;12.04;98.11
75036;BME280;64247;51.540;5.854;2022-10-16T00:53:28;100755.47;;;12.01;98.14
75036;BME280;64247;51.540;5.854;2022-10-16T00:55:30;100766.72;;;12.00;98.36
75036;BME280;64247;51.540;5.854;2022-10-16T00:57:31;100769.34;;;11.96;98.15
75036;BME280;64247;51.540;5.854;2022-10-16T00:59:38;100766.53;;;11.93;98.32
75036;BME280;64247;51.540;5.854;2022-10-16T01:01:41;100769.16;;;11.89;98.51
75036;BME280;64247;51.540;5.854;2022-10-16T01:03:42;100760.13;;;11.85;98.54
75036;BME280;64247;51.540;5.854;2022-10-16T01:05:49;100760.38;;;11.80;98.85
75036;BME280;64247;51.540;5.854;2022-10-16T01:08:32;100763.09;;;11.80;99.05
75036;BME280;64247;51.540;5.854;2022-10-16T01:13:38;100754.00;;;11.72;99.12
75036;BME280;64247;51.540;5.854;2022-10-16T01:15:50;100753.91;;;11.68;99.26
75036;BME280;64247;51.540;5.854;2022-10-16T01:18:11;100743.38;;;11.67;99.36
75036;BME280;64247;51.540;5.854;2022-10-16T01:27:00;100738.97;;;11.62;99.54
75036;BME280;64247;51.540;5.854;2022-10-16T01:29:25;100746.63;;;11.56;99.70
75036;BME280;64247;51.540;5.854;2022-10-16T01:31:41;100753.19;;;11.55;99.69
75036;BME280;64247;51.540;5.854;2022-10-16T01:33:56;100748.88;;;11.54;99.82
75036;BME280;64247;51.540;5.854;2022-10-16T01:36:13;100748.09;;;11.54;99.65
75036;BME280;64247;51.540;5.854;2022-10-16T01:38:43;100757.41;;;11.53;99.93
75036;BME280;64247;51.540;5.854;2022-10-16T01:40:53;100745.72;;;11.52;99.64
75036;BME280;64247;51.540;5.854;2022-10-16T01:43:12;100749.56;;;11.51;99.68
75036;BME280;64247;51.540;5.854;2022-10-16T01:45:20;100749.56;;;11.51;99.78
75036;BME280;64247;51.540;5.854;2022-10-16T01:47:24;100750.03;;;11.53;99.74
75036;BME280;64247;51.540;5.854;2022-10-16T01:49:32;100756.25;;;11.54;99.43
75036;BME280;64247;51.540;5.854;2022-10-16T01:51:37;100763.16;;;11.51;99.41
75036;BME280;64247;51.540;5.854;2022-10-16T01:53:39;100763.16;;;11.51;99.54
75036;BME280;64247;51.540;5.854;2022-10-16T01:55:46;100761.69;;;11.54;99.67
75036;BME280;64247;51.540;5.854;2022-10-16T01:57:50;100762.84;;;11.53;99.60
75036;BME280;64247;51.540;5.854;2022-10-16T01:59:57;100764.06;;;11.55;99.54
75036;BME280;64247;51.540;5.854;2022-10-16T02:02:27;100762.47;;;11.54;99.42
75036;BME280;64247;51.540;5.854;2022-10-16T02:04:32;100768.28;;;11.53;99.34
75036;BME280;64247;51.540;5.854;2022-10-16T02:06:36;100763.63;;;11.53;99.42
75036;BME280;64247;51.540;5.854;2022-10-16T02:08:38;100776.06;;;11.54;99.36
75036;BME280;64247;51.540;5.854;2022-10-16T02:10:41;100775.28;;;11.54;99.29
75036;BME280;64247;51.540;5.854;2022-10-16T02:12:45;100771.78;;;11.53;99.24
75036;BME280;64247;51.540;5.854;2022-10-16T02:14:52;100774.59;;;11.57;99.26
75036;BME280;64247;51.540;5.854;2022-10-16T02:16:53;100766.06;;;11.59;99.18
75036;BME280;64247;51.540;5.854;2022-10-16T02:18:56;100773.53;;;11.62;98.65
75036;BME280;64247;51.540;5.854;2022-10-16T02:21:01;100775.22;;;11.66;98.55
75036;BME280;64247;51.540;5.854;2022-10-16T02:23:08;100763.19;;;11.67;98.49
75036;BME280;64247;51.540;5.854;2022-10-16T02:25:23;100772.59;;;11.70;98.30
75036;BME280;64247;51.540;5.854;2022-10-16T02:28:06;100771.78;;;11.69;98.17
75036;BME280;64247;51.540;5.854;2022-10-16T02:30:25;100762.84;;;11.69;98.09
75036;BME280;64247;51.540;5.854;2022-10-16T02:32:32;100763.97;;;11.68;98.09
75036;BME280;64247;51.540;5.854;2022-10-16T02:34:35;100761.16;;;11.64;98.28
75036;BME280;64247;51.540;5.854;2022-10-16T02:36:39;100761.84;;;11.61;98.17
75036;BME280;64247;51.540;5.854;2022-10-16T02:38:43;100764.16;;;11.59;98.08
75036;BME280;64247;51.540;5.854;2022-10-16T02:40:44;100765.66;;;11.56;98.14
75036;BME280;64247;51.540;5.854;2022-10-16T02:42:50;100754.78;;;11.56;98.32
75036;BME280;64247;51.540;5.854;2022-10-16T02:44:52;100769.16;;;11.57;98.39
75036;BME280;64247;51.540;5.854;2022-10-16T02:46:53;100757.50;;;11.56;98.27
75036;BME280;64247;51.540;5.854;2022-10-16T02:48:54;100759.41;;;11.56;98.17
75036;BME280;64247;51.540;5.854;2022-10-16T02:50:55;100769.06;;;11.53;98.28
75036;BME280;64247;51.540;5.854;2022-10-16T02:52:57;100761.59;;;11.50;98.48
75036;BME280;64247;51.540;5.854;2022-10-16T02:54:58;100765.88;;;11.51;98.55
75036;BME280;64247;51.540;5.854;2022-10-16T02:56:59;100758.97;;;11.54;98.47
75036;BME280;64247;51.540;5.854;2022-10-16T02:59:00;100760.22;;;11.56;98.21
75036;BME280;64247;51.540;5.854;2022-10-16T03:01:00;100754.31;;;11.54;98.12
75036;BME280;64247;51.540;5.854;2022-10-16T03:03:02;100758.53;;;11.52;98.16
75036;BME280;64247;51.540;5.854;2022-10-16T03:05:03;100751.06;;;11.49;98.20
75036;BME280;64247;51.540;5.854;2022-10-16T03:07:04;100745.28;;;11.50;98.47
75036;BME280;64247;51.540;5.854;2022-10-16T03:09:05;100754.16;;;11.47;98.48
75036;BME280;64247;51.540;5.854;2022-10-16T03:11:06;100758.00;;;11.46;98.60
75036;BME280;64247;51.540;5.854;2022-10-16T03:13:07;100763.44;;;11.46;98.77
75036;BME280;64247;51.540;5.854;2022-10-16T03:15:08;100770.47;;;11.47;98.56
75036;BME280;64247;51.540;5.854;2022-10-16T03:17:09;100766.94;;;11.47;98.69
75036;BME280;64247;51.540;5.854;2022-10-16T03:19:10;100773.94;;;11.48;98.53
75036;BME280;64247;51.540;5.854;2022-10-16T03:21:11;100776.66;;;11.48;98.31
75036;BME280;64247;51.540;5.854;2022-10-16T03:23:12;100767.75;;;11.47;98.59
75036;BME280;64247;51.540;5.854;2022-10-16T03:25:13;100780.19;;;11.48;98.50
75036;BME280;64247;51.540;5.854;2022-10-16T03:27:14;100785.63;;;11.48;98.28
75036;BME280;64247;51.540;5.854;2022-10-16T03:29:15;100791.06;;;11.48;98.73
75036;BME280;64247;51.540;5.854;2022-10-16T03:31:16;100792.66;;;11.49;98.30
75036;BME280;64247;51.540;5.854;2022-10-16T03:33:17;100786.84;;;11.51;98.65
75036;BME280;64247;51.540;5.854;2022-10-16T03:35:18;100790.34;;;11.51;98.52
75036;BME280;64247;51.540;5.854;2022-10-16T03:37:19;100784.91;;;11.51;98.52
75036;BME280;64247;51.540;5.854;2022-10-16T03:39:20;100790.34;;;11.51;98.48
75036;BME280;64247;51.540;5.854;2022-10-16T03:41:21;100796.59;;;11.52;98.50
75036;BME280;64247;51.540;5.854;2022-10-16T03:43:22;100785.28;;;11.50;98.72
75036;BME280;64247;51.540;5.854;2022-10-16T03:45:23;100785.28;;;11.50;98.75
75036;BME280;64247;51.540;5.854;2022-10-16T03:47:24;100789.56;;;11.51;98.71
75036;BME280;64247;51.540;5.854;2022-10-16T03:49:25;100779.84;;;11.50;98.69
75036;BME280;64247;51.540;5.854;2022-10-16T03:51:26;100791.16;;;11.52;98.43
75036;BME280;64247;51.540;5.854;2022-10-16T03:53:27;100794.22;;;11.50;98.73
75036;BME280;64247;51.540;5.854;2022-10-16T03:55:28;100798.88;;;11.50;98.71
75036;BME280;64247;51.540;5.854;2022-10-16T03:57:29;100805.88;;;11.51;98.72
75036;BME280;64247;51.540;5.854;2022-10-16T03:59:30;100801.59;;;11.50;98.71
75036;BME280;64247;51.540;5.854;2022-10-16T04:01:31;100809.38;;;11.51;98.76
75036;BME280;64247;51.540;5.854;2022-10-16T04:03:32;100807.47;;;11.52;98.72
75036;BME280;64247;51.540;5.854;2022-10-16T04:05:33;100824.09;;;11.50;98.66
75036;BME280;64247;51.540;5.854;2022-10-16T04:07:34;100819.03;;;11.49;98.43
75036;BME280;64247;51.540;5.854;2022-10-16T04:09:35;100812.00;;;11.48;98.80
75036;BME280;64247;51.540;5.854;2022-10-16T04:11:36;100806.25;;;11.49;98.95
75036;BME280;64247;51.540;5.854;2022-10-16T04:13:37;100816.31;;;11.49;99.07
75036;BME280;64247;51.540;5.854;2022-10-16T04:15:38;100819.03;;;11.49;98.87
75036;BME280;64247;51.540;5.854;2022-10-16T04:17:39;100820.97;;;11.48;99.04
75036;BME280;64247;51.540;5.854;2022-10-16T04:19:41;100818.66;;;11.50;99.01
75036;BME280;64247;51.540;5.854;2022-10-16T04:21:42;100810.50;;;11.50;99.30
75036;BME280;64247;51.540;5.854;2022-10-16T04:23:42;100823.78;;;11.52;99.07
75036;BME280;64247;51.540;5.854;2022-10-16T04:25:43;100821.06;;;11.52;99.05
75036;BME280;64247;51.540;5.854;2022-10-16T04:27:44;100829.31;;;11.55;99.09
75036;BME280;64247;51.540;5.854;2022-10-16T04:29:45;100820.03;;;11.56;98.99
75036;BME280;64247;51.540;5.854;2022-10-16T04:31:46;100831.31;;;11.59;99.08
75036;BME280;64247;51.540;5.854;2022-10-16T04:33:47;100838.00;;;11.61;98.95
75036;BME280;64247;51.540;5.854;2022-10-16T04:35:48;100830.28;;;11.63;99.22
75036;BME280;64247;51.540;5.854;2022-10-16T04:37:58;100833.44;;;11.65;98.79
75036;BME280;64247;51.540;5.854;2022-10-16T04:39:59;100835.81;;;11.67;98.90
75036;BME280;64247;51.540;5.854;2022-10-16T04:41:59;100830.81;;;11.69;98.88
75036;BME280;64247;51.540;5.854;2022-10-16T04:44:00;100837.50;;;11.71;98.71
75036;BME280;64247;51.540;5.854;2022-10-16T04:46:01;100834.41;;;11.73;98.37
75036;BME280;64247;51.540;5.854;2022-10-16T04:48:04;100842.25;;;11.75;98.58
75036;BME280;64247;51.540;5.854;2022-10-16T04:50:06;100839.06;;;11.72;98.71
75036;BME280;64247;51.540;5.854;2022-10-16T04:52:07;100842.25;;;11.75;98.63
75036;BME280;64247;51.540;5.854;2022-10-16T04:54:10;100839.53;;;11.75;98.37
75036;BME280;64247;51.540;5.854;2022-10-16T04:56:11;100853.13;;;11.75;98.46
75036;BME280;64247;51.540;5.854;2022-10-16T04:58:12;100851.19;;;11.75;98.58
75036;BME280;64247;51.540;5.854;2022-10-16T05:00:13;100854.72;;;11.76;98.33
75036;BME280;64247;51.540;5.854;2022-10-16T05:02:14;100854.34;;;11.77;98.64
75036;BME280;64247;51.540;5.854;2022-10-16T05:04:15;100855.47;;;11.76;98.58
75036;BME280;64247;51.540;5.854;2022-10-16T05:06:16;100845.84;;;11.79;98.47
75036;BME280;64247;51.540;5.854;2022-10-16T05:08:17;100862.97;;;11.79;98.42
75036;BME280;64247;51.540;5.854;2022-10-16T05:10:18;100864.50;;;11.80;98.38
75036;BME280;64247;51.540;5.854;2022-10-16T05:12:19;100865.78;;;11.83;98.28
75036;BME280;64247;51.540;5.854;2022-10-16T05:14:20;100867.69;;;11.82;98.12
75036;BME280;64247;51.540;5.854;2022-10-16T05:16:21;100866.91;;;11.82;98.28
75036;BME280;64247;51.540;5.854;2022-10-16T05:18:22;100866.09;;;11.81;98.46
75036;BME280;64247;51.540;5.854;2022-10-16T05:20:23;100865.31;;;11.81;98.21
75036;BME280;64247;51.540;5.854;2022-10-16T05:22:24;100866.44;;;11.80;98.60
75036;BME280;64247;51.540;5.854;2022-10-16T05:24:26;100876.56;;;11.79;98.67
75036;BME280;64247;51.540;5.854;2022-10-16T05:26:27;100870.75;;;11.81;98.64
75036;BME280;64247;51.540;5.854;2022-10-16T05:28:29;100878.09;;;11.80;98.47
75036;BME280;64247;51.540;5.854;2022-10-16T05:30:30;100889.78;;;11.81;98.90
75036;BME280;64247;51.540;5.854;2022-10-16T05:32:31;100885.50;;;11.80;98.73
75036;BME280;64247;51.540;5.854;2022-10-16T05:34:32;100884.72;;;11.79;98.76
75036;BME280;64247;51.540;5.854;2022-10-16T05:36:33;100900.59;;;11.77;98.79
75036;BME280;64247;51.540;5.854;2022-10-16T05:38:35;100892.78;;;11.76;99.04
75036;BME280;64247;51.540;5.854;2022-10-16T05:40:37;100902.06;;;11.75;99.12
75036;BME280;64247;51.540;5.854;2022-10-16T05:42:38;100901.25;;;11.74;99.17
75036;BME280;64247;51.540;5.854;2022-10-16T05:44:40;100900.47;;;11.74;99.00
75036;BME280;64247;51.540;5.854;2022-10-16T05:46:41;100898.91;;;11.72;99.38
75036;BME280;64247;51.540;5.854;2022-10-16T05:48:41;100891.88;;;11.71;99.42
75036;BME280;64247;51.540;5.854;2022-10-16T05:50:42;100901.25;;;11.74;99.27
75036;BME280;64247;51.540;5.854;2022-10-16T05:52:43;100909.41;;;11.74;99.21
75036;BME280;64247;51.540;5.854;2022-10-16T05:54:44;100915.22;;;11.72;99.37
75036;BME280;64247;51.540;5.854;2022-10-16T05:56:45;100924.88;;;11.70;99.14
75036;BME280;64247;51.540;5.854;2022-10-16T05:58:46;100925.53;;;11.67;99.36
75036;BME280;64247;51.540;5.854;2022-10-16T06:01:16;100938.25;;;11.63;99.76
75036;BME280;64247;51.540;5.854;2022-10-16T06:03:18;100943.34;;;11.64;100.00
75036;BME280;64247;51.540;5.854;2022-10-16T06:05:19;100947.28;;;11.67;99.92
75036;BME280;64247;51.540;5.854;2022-10-16T06:07:21;100947.28;;;11.67;99.68
75036;BME280;64247;51.540;5.854;2022-10-16T06:09:22;100951.59;;;11.68;99.80
75036;BME280;64247;51.540;5.854;2022-10-16T06:11:29;100950.47;;;11.69;99.82
75036;BME280;64247;51.540;5.854;2022-10-16T06:13:31;100955.91;;;11.69;99.70
75036;BME280;64247;51.540;5.854;2022-10-16T06:15:32;100968.59;;;11.65;99.42
75036;BME280;64247;51.540;5.854;2022-10-16T06:17:33;100966.59;;;11.62;99.86
75036;BME280;64247;51.540;5.854;2022-10-16T06:19:34;100968.94;;;11.63;100.00
75036;BME280;64247;51.540;5.854;2022-10-16T06:21:35;100970.88;;;11.63;99.81
75036;BME280;64247;51.540;5.854;2022-10-16T06:23:36;100983.34;;;11.64;100.00
75036;BME280;64247;51.540;5.854;2022-10-16T06:25:37;100976.31;;;11.63;100.00
75036;BME280;64247;51.540;5.854;2022-10-16T06:27:41;100981.06;;;11.66;99.80
75036;BME280;64247;51.540;5.854;2022-10-16T06:29:42;100983.09;;;11.69;99.85
75036;BME280;64247;51.540;5.854;2022-10-16T06:31:44;100985.81;;;11.69;99.91
75036;BME280;64247;51.540;5.854;2022-10-16T06:33:45;100992.50;;;11.71;99.80
75036;BME280;64247;51.540;5.854;2022-10-16T06:35:48;100987.41;;;11.70;99.70
75036;BME280;64247;51.540;5.854;2022-10-16T06:37:49;100999.06;;;11.70;99.72
75036;BME280;64247;51.540;5.854;2022-10-16T06:39:50;100994.44;;;11.71;99.47
75036;BME280;64247;51.540;5.854;2022-10-16T06:41:54;100992.13;;;11.73;99.48
75036;BME280;64247;51.540;5.854;2022-10-16T06:43:55;101012.09;;;11.77;99.28
75036;BME280;64247;51.540;5.854;2022-10-16T06:45:56;101011.28;;;11.77;99.18
75036;BME280;64247;51.540;5.854;2022-10-16T06:47:58;101011.16;;;11.85;99.14
75036;BME280;64247;51.540;5.854;2022-10-16T06:49:59;101012.94;;;11.94;98.70
75036;BME280;64247;51.540;5.854;2022-10-16T06:52:00;101016.44;;;11.94;98.23
75036;BME280;64247;51.540;5.854;2022-10-16T06:54:02;101015.38;;;12.11;97.94
75036;BME280;64247;51.540;5.854;2022-10-16T06:56:14;101020.56;;;12.45;96.79
75036;BME280;64247;51.540;5.854;2022-10-16T06:58:39;101025.31;;;12.80;94.34
75036;BME280;64247;51.540;5.854;2022-10-16T07:00:40;101026.72;;;13.06;92.99
75036;BME280;64247;51.540;5.854;2022-10-16T07:02:41;101027.31;;;13.31;91.43
75036;BME280;64247;51.540;5.854;2022-10-16T07:04:42;101034.91;;;13.57;90.81
75036;BME280;64247;51.540;5.854;2022-10-16T07:06:43;101037.88;;;13.88;88.68
75036;BME280;64247;51.540;5.854;2022-10-16T07:08:45;101031.75;;;14.14;87.46
75036;BME280;64247;51.540;5.854;2022-10-16T07:10:47;101030.94;;;14.33;86.73
75036;BME280;64247;51.540;5.854;2022-10-16T07:12:48;101036.38;;;14.53;85.10
75036;BME280;64247;51.540;5.854;2022-10-16T07:14:49;101043.28;;;14.66;85.34
75036;BME280;64247;51.540;5.854;2022-10-16T07:16:52;101052.59;;;14.85;83.76
75036;BME280;64247;51.540;5.854;2022-10-16T07:18:54;101051.56;;;14.93;83.34
75036;BME280;64247;51.540;5.854;2022-10-16T07:21:32;101058.81;;;15.09;82.99
75036;BME280;64247;51.540;5.854;2022-10-16T07:23:37;101061.06;;;15.30;81.34
75036;BME280;64247;51.540;5.854;2022-10-16T07:25:38;101068.59;;;15.37;81.61
75036;BME280;64247;51.540;5.854;2022-10-16T07:27:39;101074.44;;;15.62;80.56
75036;BME280;64247;51.540;5.854;2022-10-16T07:29:40;101067.13;;;15.70;79.59
75036;BME280;64247;51.540;5.854;2022-10-16T07:31:42;101064.78;;;15.72;79.79
75036;BME280;64247;51.540;5.854;2022-10-16T07:33:44;101072.44;;;15.86;79.88
75036;BME280;64247;51.540;5.854;2022-10-16T07:35:52;101076.41;;;15.92;78.90
75036;BME280;64247;51.540;5.854;2022-10-16T07:37:54;101077.22;;;15.92;78.47
75036;BME280;64247;51.540;5.854;2022-10-16T07:39:55;101083.53;;;15.96;79.25
75036;BME280;64247;51.540;5.854;2022-10-16T07:41:56;101086.31;;;16.00;78.35
75036;BME280;64247;51.540;5.854;2022-10-16T07:43:58;101086.84;;;16.13;78.17
75036;BME280;64247;51.540;5.854;2022-10-16T07:46:00;101094.06;;;16.28;78.05
75036;BME280;64247;51.540;5.854;2022-10-16T07:48:01;101100.88;;;16.42;76.96
75036;BME280;64247;51.540;5.854;2022-10-16T07:50:03;101100.28;;;16.59;75.81
75036;BME280;64247;51.540;5.854;2022-10-16T07:52:04;101098.84;;;16.73;76.01
75036;BME280;64247;51.540;5.854;2022-10-16T07:54:05;101109.09;;;16.80;75.56
75036;BME280;64247;51.540;5.854;2022-10-16T07:56:06;101111.34;;;17.08;74.72
75036;BME280;64247;51.540;5.854;2022-10-16T07:58:08;101115.66;;;17.13;74.17
75036;BME280;64247;51.540;5.854;2022-10-16T08:00:10;101128.91;;;17.55;72.19
75036;BME280;64247;51.540;5.854;2022-10-16T08:02:14;101122.69;;;17.62;71.32
75036;BME280;64247;51.540;5.854;2022-10-16T08:04:15;101128.78;;;17.37;73.05
75036;BME280;64247;51.540;5.854;2022-10-16T08:06:17;101127.19;;;17.33;73.30
75036;BME280;64247;51.540;5.854;2022-10-16T08:08:20;101138.69;;;17.49;72.81
75036;BME280;64247;51.540;5.854;2022-10-16T08:10:23;101139.91;;;17.55;71.88
75036;BME280;64247;51.540;5.854;2022-10-16T08:12:26;101146.66;;;17.69;73.33
75036;BME280;64247;51.540;5.854;2022-10-16T08:14:27;101140.47;;;17.83;71.07
75036;BME280;64247;51.540;5.854;2022-10-16T08:16:27;101152.53;;;17.67;71.14
75036;BME280;64247;51.540;5.854;2022-10-16T08:18:28;101152.19;;;17.72;71.36
75036;BME280;64247;51.540;5.854;2022-10-16T08:20:30;101145.72;;;18.02;70.58
75036;BME280;64247;51.540;5.854;2022-10-16T08:22:32;101162.97;;;18.07;69.37
75036;BME280;64247;51.540;5.854;2022-10-16T08:24:33;101159.47;;;18.06;71.10
75036;BME280;64247;51.540;5.854;2022-10-16T08:26:35;101175.00;;;18.69;69.15
75036;BME280;64247;51.540;5.854;2022-10-16T08:28:36;101164.72;;;18.51;68.92
75036;BME280;64247;51.540;5.854;2022-10-16T08:30:37;101164.66;;;17.66;70.39
75036;BME280;64247;51.540;5.854;2022-10-16T08:32:38;101167.13;;;17.79;70.74
75036;BME280;64247;51.540;5.854;2022-10-16T08:34:40;101163.69;;;17.93;70.03
75036;BME280;64247;51.540;5.854;2022-10-16T08:36:41;101179.72;;;18.61;67.49
75036;BME280;64247;51.540;5.854;2022-10-16T08:38:42;101180.69;;;18.20;69.24
75036;BME280;64247;51.540;5.854;2022-10-16T08:40:43;101173.66;;;18.19;68.94
75036;BME280;64247;51.540;5.854;2022-10-16T08:48:51;101178.66;;;19.12;65.13
75036;BME280;64247;51.540;5.854;2022-10-16T08:50:54;101191.94;;;18.78;66.83
75036;BME280;64247;51.540;5.854;2022-10-16T08:52:56;101190.31;;;18.66;66.68
75036;BME280;64247;51.540;5.854;2022-10-16T08:54:58;101189.63;;;18.94;66.37
75036;BME280;64247;51.540;5.854;2022-10-16T08:57:19;101197.50;;;19.03;65.11
75036;BME280;64247;51.540;5.854;2022-10-16T08:59:22;101203.19;;;18.44;66.79
75036;BME280;64247;51.540;5.854;2022-10-16T09:01:24;101199.72;;;18.54;67.26
75036;BME280;64247;51.540;5.854;2022-10-16T09:07:35;101199.94;;;18.20;67.41
75036;BME280;64247;51.540;5.854;2022-10-16T09:09:58;101193.88;;;18.74;66.70
75036;BME280;64247;51.540;5.854;2022-10-16T09:12:37;101194.78;;;19.36;64.01
75036;BME280;64247;51.540;5.854;2022-10-16T09:15:01;101213.66;;;19.48;64.17
75036;BME280;64247;51.540;5.854;2022-10-16T09:18:26;101213.66;;;19.84;62.67
75036;BME280;64247;51.540;5.854;2022-10-16T09:20:53;101225.03;;;20.12;61.67
75036;BME280;64247;51.540;5.854;2022-10-16T09:23:21;101231.34;;;19.61;62.03
75036;BME280;64247;51.540;5.854;2022-10-16T09:25:26;101238.81;;;19.83;63.88
75036;BME280;64247;51.540;5.854;2022-10-16T09:27:27;101227.38;;;20.06;62.61
75036;BME280;64247;51.540;5.854;2022-10-16T09:29:28;101231.59;;;20.43;61.35
75036;BME280;64247;51.540;5.854;2022-10-16T09:31:29;101230.44;;;20.40;59.89
75036;BME280;64247;51.540;5.854;2022-10-16T09:33:37;101222.56;;;20.46;60.51
75036;BME280;64247;51.540;5.854;2022-10-16T09:36:02;101231.59;;;20.50;59.17
75036;BME280;64247;51.540;5.854;2022-10-16T09:38:06;101252.38;;;20.84;59.78
75036;BME280;64247;51.540;5.854;2022-10-16T09:40:25;101244.69;;;20.21;61.47
75036;BME280;64247;51.540;5.854;2022-10-16T09:42:37;101247.31;;;20.57;58.21
75036;BME280;64247;51.540;5.854;2022-10-16T09:44:38;101237.50;;;20.49;57.95
75036;BME280;64247;51.540;5.854;2022-10-16T09:46:40;101247.22;;;20.82;57.65
75036;BME280;64247;51.540;5.854;2022-10-16T09:48:47;101243.88;;;20.28;57.72
75036;BME280;64247;51.540;5.854;2022-10-16T09:51:01;101240.31;;;20.31;59.72
75036;BME280;64247;51.540;5.854;2022-10-16T09:53:14;101242.53;;;20.72;57.39
75036;BME280;64247;51.540;5.854;2022-10-16T09:55:18;101236.38;;;21.17;56.92
75036;BME280;64247;51.540;5.854;2022-10-16T09:57:20;101233.41;;;21.46;56.04
75036;BME280;64247;51.540;5.854;2022-10-16T09:59:22;101240.41;;;21.61;55.35
75036;BME280;64247;51.540;5.854;2022-10-16T10:01:36;101246.06;;;20.83;56.49
75036;BME280;64247;51.540;5.854;2022-10-16T10:03:42;101240.91;;;21.45;54.34
75036;BME280;64247;51.540;5.854;2022-10-16T10:05:47;101250.28;;;21.02;54.47
75036;BME280;64247;51.540;5.854;2022-10-16T10:08:16;101254.97;;;19.95;59.20
75036;BME280;64247;51.540;5.854;2022-10-16T10:10:29;101256.47;;;20.25;58.90
75036;BME280;64247;51.540;5.854;2022-10-16T10:12:33;101253.00;;;19.99;59.35
75036;BME280;64247;51.540;5.854;2022-10-16T10:14:43;101249.38;;;20.24;60.41
75036;BME280;64247;51.540;5.854;2022-10-16T10:16:47;101247.34;;;20.50;58.55
75036;BME280;64247;51.540;5.854;2022-10-16T10:18:58;101252.59;;;20.04;60.06
75036;BME280;64247;51.540;5.854;2022-10-16T10:21:02;101261.66;;;19.76;61.06
75036;BME280;64247;51.540;5.854;2022-10-16T10:23:21;101263.97;;;19.23;60.74
75036;BME280;64247;51.540;5.854;2022-10-16T10:29:00;101271.03;;;20.40;56.40
75036;BME280;64247;51.540;5.854;2022-10-16T10:44:30;101277.41;;;19.68;58.30
75036;BME280;64247;51.540;5.854;2022-10-16T10:47:05;101279.34;;;19.68;58.94
75036;BME280;64247;51.540;5.854;2022-10-16T10:53:26;101284.88;;;19.89;59.93
75036;BME280;64247;51.540;5.854;2022-10-16T10:55:43;101281.75;;;19.87;58.24
75036;BME280;64247;51.540;5.854;2022-10-16T11:08:41;101287.19;;;19.48;60.39
75036;BME280;64247;51.540;5.854;2022-10-16T11:11:27;101291.44;;;18.98;60.92
75036;BME280;64247;51.540;5.854;2022-10-16T11:14:00;101287.19;;;19.29;62.07
75036;BME280;64247;51.540;5.854;2022-10-16T11:16:51;101284.44;;;19.48;58.93
75036;BME280;64247;51.540;5.854;2022-10-16T11:19:04;101297.78;;;19.27;59.89
75036;BME280;64247;51.540;5.854;2022-10-16T11:21:22;101290.00;;;19.76;58.22
75036;BME280;64247;51.540;5.854;2022-10-16T11:23:35;101289.53;;;19.31;57.75
75036;BME280;64247;51.540;5.854;2022-10-16T11:26:04;101296.69;;;20.04;58.41
75036;BME280;64247;51.540;5.854;2022-10-16T11:28:23;101286.31;;;20.63;57.25
75036;BME280;64247;51.540;5.854;2022-10-16T11:34:17;101286.41;;;22.24;51.74
75036;BME280;64247;51.540;5.854;2022-10-16T11:37:14;101282.75;;;23.31;49.64
75036;BME280;64247;51.540;5.854;2022-10-16T11:39:22;101277.47;;;23.64;47.92
75036;BME280;64247;51.540;5.854;2022-10-16T11:41:27;101280.66;;;23.63;47.46
75036;BME280;64247;51.540;5.854;2022-10-16T11:43:41;101285.03;;;24.11;46.96
75036;BME280;64247;51.540;5.854;2022-10-16T11:45:51;101296.47;;;24.33;48.13
75036;BME280;64247;51.540;5.854;2022-10-16T11:48:11;101293.28;;;24.75;46.67
75036;BME280;64247;51.540;5.854;2022-10-16T11:56:17;101300.69;;;24.42;43.42
75036;BME280;64247;51.540;5.854;2022-10-16T11:58:32;101300.06;;;24.54;46.20
75036;BME280;64247;51.540;5.854;2022-10-16T12:08:40;101304.13;;;24.90;46.75
75036;BME280;64247;51.540;5.854;2022-10-16T12:10:46;101304.44;;;24.11;45.37